createdAt,value
2023-01-10T00:00:09.766Z,98401.00
2023-01-10T00:02:40.729Z,98410.00
2023-01-10T00:05:11.792Z,98411.00
2023-01-10T00:07:43.327Z,98406.00
2023-01-10T00:10:14.272Z,98410.00
2023-01-10T00:13:03.764Z,98410.00
2023-01-10T00:15:36.360Z,98417.00
2023-01-10T00:18:07.269Z,98420.00
2023-01-10T00:20:38.535Z,98424.00
2023-01-10T00:23:09.375Z,98421.00
2023-01-10T00:25:40.837Z,98426.00
2023-01-10T00:28:20.216Z,98432.00
2023-01-10T00:31:06.911Z,98442.00
2023-01-10T00:33:38.528Z,98448.00
2023-01-10T00:36:10.981Z,98437.00
2023-01-10T00:38:41.895Z,98442.00
2023-01-10T00:41:33.284Z,98453.00
2023-01-10T00:44:06.564Z,98460.00
2023-01-10T00:46:37.548Z,98453.00
2023-01-10T00:49:08.566Z,98466.00
2023-01-10T00:51:39.569Z,98474.00
2023-01-10T00:54:12.477Z,98472.00
2023-01-10T00:56:43.405Z,98475.00
2023-01-10T00:59:16.304Z,98477.00
2023-01-10T01:01:47.446Z,98477.00
2023-01-10T01:04:18.508Z,98491.00
2023-01-10T01:06:50.843Z,98492.00
2023-01-10T01:09:21.753Z,98498.00
2023-01-10T01:11:52.652Z,98509.00
2023-01-10T01:14:25.033Z,98504.00
2023-01-10T01:16:56.402Z,98517.00
2023-01-10T01:19:28.581Z,98525.00
2023-01-10T01:21:59.478Z,98539.00
2023-01-10T01:24:30.391Z,98524.00
2023-01-10T01:27:01.290Z,98534.00
2023-01-10T01:29:42.641Z,98540.00
2023-01-10T01:32:14.497Z,98552.00
2023-01-10T01:34:45.615Z,98549.00
2023-01-10T01:37:19.507Z,98553.00
2023-01-10T01:39:50.388Z,98557.00
2023-01-10T01:42:29.654Z,98559.00
2023-01-10T01:45:09.617Z,98570.00
2023-01-10T01:47:56.679Z,98571.00
2023-01-10T01:50:48.136Z,98584.00
2023-01-10T01:53:33.275Z,98588.00
2023-01-10T01:56:15.180Z,98596.00
2023-01-10T01:58:55.137Z,98607.00
2023-01-10T02:01:27.114Z,98619.00
2023-01-10T02:04:19.591Z,98609.00
2023-01-10T02:06:53.726Z,98610.00
2023-01-10T02:10:00.529Z,98622.00
2023-01-10T02:12:33.229Z,98624.00
2023-01-10T02:15:04.745Z,98641.00
2023-01-10T02:17:35.665Z,98656.00
2023-01-10T02:20:13.620Z,98653.00
2023-01-10T02:23:30.000Z,98686.00
2023-01-10T02:26:34.128Z,98687.00
2023-01-10T02:29:43.784Z,98684.00
2023-01-10T02:32:48.049Z,98694.00
2023-01-10T02:36:02.282Z,98698.00
2023-01-10T02:38:39.869Z,98699.00
2023-01-10T02:41:42.255Z,98702.00
2023-01-10T02:44:39.495Z,98699.00
2023-01-10T02:47:10.711Z,98716.00
2023-01-10T02:49:50.882Z,98718.00
2023-01-10T02:52:27.674Z,98723.00
2023-01-10T02:55:02.342Z,98711.00
2023-01-10T02:57:55.215Z,98728.00
2023-01-10T03:00:31.795Z,98728.00
2023-01-10T03:03:38.948Z,98740.00
2023-01-10T03:06:41.159Z,98755.00
2023-01-10T03:09:34.383Z,98746.00
2023-01-10T03:12:25.797Z,98750.00
2023-01-10T03:14:57.946Z,98765.00
2023-01-10T03:17:30.718Z,98757.00
2023-01-10T03:20:05.431Z,98771.00
2023-01-10T03:22:39.799Z,98777.00
2023-01-10T03:25:14.429Z,98786.00
2023-01-10T03:28:00.286Z,98803.00
2023-01-10T03:31:10.364Z,98800.00
2023-01-10T03:33:42.453Z,98808.00
2023-01-10T03:36:31.206Z,98823.00
2023-01-10T03:39:11.267Z,98818.00
2023-01-10T03:41:59.512Z,98813.00
2023-01-10T03:45:01.441Z,98831.00
2023-01-10T03:47:46.754Z,98817.00
2023-01-10T03:50:24.800Z,98819.00
2023-01-10T03:52:57.599Z,98814.00
2023-01-10T03:55:30.129Z,98825.00
2023-01-10T03:58:01.090Z,98832.00
2023-01-10T04:00:32.091Z,98838.00
2023-01-10T04:03:03.523Z,98872.00
2023-01-10T04:05:34.468Z,98845.00
2023-01-10T04:08:05.815Z,98851.00
2023-01-10T04:10:37.867Z,98854.00
2023-01-10T04:13:08.722Z,98865.00
2023-01-10T04:15:39.614Z,98871.00
2023-01-10T04:18:10.493Z,98872.00
2023-01-10T04:20:41.460Z,98877.00
2023-01-10T04:23:12.298Z,98874.00
2023-01-10T04:25:47.859Z,98887.00
2023-01-10T04:28:18.750Z,98893.00
2023-01-10T04:30:49.656Z,98892.00
2023-01-10T04:33:20.521Z,98915.00
2023-01-10T04:35:52.327Z,98900.00
2023-01-10T04:38:23.166Z,98910.00
2023-01-10T04:40:56.441Z,98913.00
2023-01-10T04:43:27.330Z,98945.00
2023-01-10T04:45:58.332Z,98937.00
2023-01-10T04:48:29.233Z,98940.00
2023-01-10T04:51:00.234Z,98937.00
2023-01-10T04:53:31.271Z,98949.00
2023-01-10T04:56:07.097Z,98952.00
2023-01-10T04:58:38.504Z,98953.00
2023-01-10T05:01:18.942Z,98966.00
2023-01-10T05:03:54.804Z,98967.00
2023-01-10T05:06:25.786Z,98964.00
2023-01-10T05:08:57.052Z,98975.00
2023-01-10T05:11:27.958Z,98976.00
2023-01-10T05:13:58.808Z,98975.00
2023-01-10T05:16:29.933Z,98978.00
2023-01-10T05:19:00.767Z,99015.00
2023-01-10T05:21:31.668Z,98986.00
2023-01-10T05:24:02.618Z,98988.00
2023-01-10T05:26:33.526Z,98994.00
2023-01-10T05:29:04.472Z,99007.00
2023-01-10T05:31:38.405Z,99010.00
2023-01-10T05:34:13.029Z,99010.00
2023-01-10T05:36:43.871Z,99017.00
2023-01-10T05:39:14.750Z,99010.00
2023-01-10T05:41:45.652Z,99032.00
2023-01-10T05:44:16.639Z,99031.00
2023-01-10T05:46:47.552Z,99030.00
2023-01-10T05:49:18.409Z,99040.00
2023-01-10T05:51:49.325Z,99053.00
2023-01-10T05:54:20.344Z,99041.00
2023-01-10T05:56:51.232Z,99044.00
2023-01-10T05:59:28.792Z,99042.00
2023-01-10T06:01:59.827Z,99057.00
2023-01-10T06:04:30.755Z,99051.00
2023-01-10T06:07:01.647Z,99050.00
2023-01-10T06:09:32.736Z,99062.00
2023-01-10T06:12:03.961Z,99064.00
2023-01-10T06:14:34.799Z,99070.00
2023-01-10T06:17:10.076Z,99067.00
2023-01-10T06:19:40.911Z,99058.00
2023-01-10T06:22:12.013Z,99068.00
2023-01-10T06:24:42.984Z,99075.00
2023-01-10T06:27:13.938Z,99076.00
2023-01-10T06:29:44.785Z,99073.00
2023-01-10T06:32:15.698Z,99081.00
2023-01-10T06:34:46.559Z,99075.00
2023-01-10T06:37:20.013Z,99101.00
2023-01-10T06:39:51.356Z,99098.00
2023-01-10T06:42:22.418Z,99105.00
2023-01-10T06:44:53.287Z,99110.00
2023-01-10T06:47:24.343Z,99114.00
2023-01-10T06:49:55.228Z,99124.00
2023-01-10T06:52:26.119Z,99131.00
2023-01-10T06:54:57.166Z,99129.00
2023-01-10T06:57:30.693Z,99133.00
2023-01-10T07:00:10.498Z,99145.00
2023-01-10T07:02:41.589Z,99152.00
2023-01-10T07:05:12.590Z,99149.00
2023-01-10T07:07:43.551Z,99153.00
2023-01-10T07:10:14.401Z,99150.00
2023-01-10T07:12:45.341Z,99155.00
2023-01-10T07:15:16.262Z,99157.00
2023-01-10T07:17:47.332Z,99167.00
2023-01-10T07:20:18.704Z,99173.00
2023-01-10T07:22:58.283Z,99186.00
2023-01-10T07:25:30.561Z,99192.00
2023-01-10T07:28:01.455Z,99209.00
2023-01-10T07:30:32.586Z,99205.00
2023-01-10T07:33:04.077Z,99193.00
2023-01-10T07:35:35.017Z,99204.00
2023-01-10T07:38:05.960Z,99189.00
2023-01-10T07:40:36.962Z,99192.00
2023-01-10T07:43:07.818Z,99189.00
2023-01-10T07:45:38.740Z,99203.00
2023-01-10T07:48:10.289Z,99204.00
2023-01-10T07:50:41.160Z,99235.00
2023-01-10T07:53:12.117Z,99228.00
2023-01-10T07:55:46.166Z,99241.00
2023-01-10T07:58:17.306Z,99246.00
2023-01-10T08:00:50.441Z,99247.00
2023-01-10T08:03:22.352Z,99251.00
2023-01-10T08:06:10.379Z,99248.00
2023-01-10T08:08:41.287Z,99265.00
2023-01-10T08:11:12.576Z,99256.00
2023-01-10T08:13:43.419Z,99256.00
2023-01-10T08:16:15.748Z,99263.00
2023-01-10T08:18:46.730Z,99246.00
2023-01-10T08:21:17.727Z,99262.00
2023-01-10T08:23:48.652Z,99258.00
2023-01-10T08:26:19.869Z,99268.00
2023-01-10T08:28:50.688Z,99277.00
2023-01-10T08:31:21.645Z,99269.00
2023-01-10T08:33:52.658Z,99279.00
2023-01-10T08:36:24.337Z,99293.00
2023-01-10T08:38:56.123Z,99307.00
2023-01-10T08:41:26.992Z,99299.00
2023-01-10T08:43:57.878Z,99292.00
2023-01-10T08:46:28.912Z,99305.00
2023-01-10T08:48:59.843Z,99300.00
2023-01-10T08:51:30.730Z,99304.00
2023-01-10T08:54:01.736Z,99298.00
2023-01-10T08:56:32.596Z,99304.00
2023-01-10T08:59:03.655Z,99298.00
2023-01-10T09:01:35.035Z,99313.00
2023-01-10T09:04:05.995Z,99324.00
2023-01-10T09:06:37.913Z,99323.00
2023-01-10T09:09:09.710Z,99326.00
2023-01-10T09:11:41.953Z,99332.00
2023-01-10T09:14:12.900Z,99330.00
2023-01-10T09:16:43.831Z,99338.00
2023-01-10T09:19:14.713Z,99343.00
2023-01-10T09:21:45.595Z,99338.00
2023-01-10T09:24:16.470Z,99344.00
2023-01-10T09:26:47.519Z,99339.00
2023-01-10T09:29:18.404Z,99348.00
2023-01-10T09:31:49.356Z,99335.00
2023-01-10T09:34:20.260Z,99350.00
2023-01-10T09:36:51.131Z,99364.00
2023-01-10T09:39:22.078Z,99360.00
2023-01-10T09:42:31.987Z,99387.00
2023-01-10T09:45:16.660Z,99377.00
2023-01-10T09:48:21.010Z,99375.00
2023-01-10T09:51:10.124Z,99379.00
2023-01-10T09:53:45.098Z,99382.00
2023-01-10T09:56:18.485Z,99396.00
2023-01-10T09:58:51.961Z,99414.00
2023-01-10T10:01:38.066Z,99410.00
2023-01-10T10:04:32.423Z,99396.00
2023-01-10T10:07:08.761Z,99397.00
2023-01-10T10:09:40.564Z,99403.00
2023-01-10T10:12:47.640Z,99384.00
2023-01-10T10:15:55.042Z,99399.00
2023-01-10T10:18:54.907Z,99377.00
2023-01-10T10:22:02.881Z,99405.00
2023-01-10T10:24:43.107Z,99376.00
2023-01-10T10:27:46.563Z,99385.00
2023-01-10T10:30:44.138Z,99374.00
2023-01-10T10:33:35.030Z,99382.00
2023-01-10T10:36:30.899Z,99392.00
2023-01-10T10:39:03.347Z,99386.00
2023-01-10T10:41:45.372Z,99376.00
2023-01-10T10:44:39.252Z,99376.00
2023-01-10T10:47:21.103Z,99379.00
2023-01-10T10:50:14.974Z,99356.00
2023-01-10T10:52:46.926Z,99379.00
2023-01-10T10:55:28.389Z,99366.00
2023-01-10T10:58:01.001Z,99367.00
2023-01-10T11:00:33.453Z,99367.00
2023-01-10T11:03:29.202Z,99372.00
2023-01-10T11:06:01.313Z,99377.00
2023-01-10T11:08:36.213Z,99386.00
2023-01-10T11:11:35.725Z,99406.00
2023-01-10T11:14:08.691Z,99394.00
2023-01-10T11:16:45.042Z,99377.00
2023-01-10T11:19:22.057Z,99393.00
2023-01-10T11:22:03.696Z,99389.00
2023-01-10T11:24:53.746Z,99391.00
2023-01-10T11:27:28.873Z,99390.00
2023-01-10T11:30:08.690Z,99393.00
2023-01-10T11:32:50.261Z,99396.00
2023-01-10T11:35:24.568Z,99394.00
2023-01-10T11:38:22.146Z,99386.00
2023-01-10T11:41:11.923Z,99386.00
2023-01-10T11:43:42.845Z,99379.00
2023-01-10T11:46:24.629Z,99370.00
2023-01-10T11:49:06.661Z,99371.00
2023-01-10T11:51:53.559Z,99364.00
2023-01-10T11:54:27.202Z,99365.00
2023-01-10T11:57:18.736Z,99361.00
2023-01-10T12:00:06.300Z,99367.00
2023-01-10T12:02:42.705Z,99361.00
2023-01-10T12:05:22.709Z,99358.00
2023-01-10T12:08:10.648Z,99364.00
2023-01-10T12:10:41.547Z,99371.00
2023-01-10T12:13:16.407Z,99364.00
2023-01-10T12:15:49.325Z,99369.00
2023-01-10T12:18:20.247Z,99362.00
2023-01-10T12:20:53.135Z,99356.00
2023-01-10T12:23:26.371Z,99342.00
2023-01-10T12:26:10.992Z,99336.00
2023-01-10T12:28:58.715Z,99342.00
2023-01-10T12:31:32.526Z,99341.00
2023-01-10T12:34:21.211Z,99326.00
2023-01-10T12:37:34.911Z,99326.00
2023-01-10T12:40:35.491Z,99313.00
2023-01-10T12:43:35.757Z,99312.00
2023-01-10T12:46:40.943Z,99310.00
2023-01-10T12:49:25.657Z,99307.00
2023-01-10T12:52:03.739Z,99306.00
2023-01-10T12:54:34.673Z,99333.00
2023-01-10T12:57:26.275Z,99309.00
2023-01-10T13:00:04.706Z,99298.00
2023-01-10T13:02:44.065Z,99310.00
2023-01-10T13:05:28.123Z,99297.00
2023-01-10T13:08:18.270Z,99307.00
2023-01-10T13:10:53.128Z,99307.00
2023-01-10T13:13:41.188Z,99308.00
2023-01-10T13:16:56.868Z,99309.00
2023-01-10T13:19:28.797Z,99314.00
2023-01-10T13:22:21.475Z,99311.00
2023-01-10T13:25:01.126Z,99296.00
2023-01-10T13:27:34.738Z,99298.00
2023-01-10T13:30:06.431Z,99305.00
2023-01-10T13:32:38.482Z,99307.00
2023-01-10T13:35:18.982Z,99298.00
2023-01-10T13:37:56.757Z,99307.00
2023-01-10T13:40:31.888Z,99308.00
2023-01-10T13:43:36.701Z,99307.00
2023-01-10T13:46:16.655Z,99306.00
2023-01-10T13:48:50.610Z,99316.00
2023-01-10T13:51:23.181Z,99318.00
2023-01-10T13:54:03.866Z,99314.00
2023-01-10T13:56:43.467Z,99305.00
2023-01-10T13:59:41.849Z,99318.00
2023-01-10T14:02:31.700Z,99307.00
2023-01-10T14:05:19.140Z,99319.00
2023-01-10T14:07:58.002Z,99311.00
2023-01-10T14:10:34.168Z,99315.00
2023-01-10T14:13:16.754Z,99307.00
2023-01-10T14:15:48.408Z,99320.00
2023-01-10T14:18:25.453Z,99321.00
2023-01-10T14:20:58.891Z,99326.00
2023-01-10T14:23:38.322Z,99326.00
2023-01-10T14:26:25.643Z,99325.00
2023-01-10T14:28:59.068Z,99319.00
2023-01-10T14:31:31.916Z,99320.00
2023-01-10T14:34:04.947Z,99315.00
2023-01-10T14:36:49.252Z,99319.00
2023-01-10T14:39:21.134Z,99321.00
2023-01-10T14:41:59.924Z,99314.00
2023-01-10T14:44:57.163Z,99316.00
2023-01-10T14:47:30.892Z,99313.00
2023-01-10T14:50:03.339Z,99313.00
2023-01-10T14:52:34.502Z,99310.00
2023-01-10T14:55:21.485Z,99311.00
2023-01-10T14:57:58.878Z,99304.00
2023-01-10T15:00:42.622Z,99304.00
2023-01-10T15:03:21.485Z,99298.00
2023-01-10T15:05:56.844Z,99284.00
2023-01-10T15:08:30.743Z,99283.00
2023-01-10T15:11:06.894Z,99279.00
2023-01-10T15:14:00.884Z,99276.00
2023-01-10T15:16:32.541Z,99272.00
2023-01-10T15:19:03.764Z,99273.00
2023-01-10T15:21:43.398Z,99283.00
2023-01-10T15:24:33.118Z,99266.00
2023-01-10T15:27:15.476Z,99256.00
2023-01-10T15:29:47.134Z,99253.00
2023-01-10T15:32:39.302Z,99250.00
2023-01-10T15:35:15.778Z,99246.00
2023-01-10T15:37:56.539Z,99250.00
2023-01-10T15:40:38.001Z,99251.00
2023-01-10T15:43:17.779Z,99245.00
2023-01-10T15:45:49.399Z,99236.00
2023-01-10T15:48:41.021Z,99235.00
2023-01-10T15:51:35.521Z,99228.00
2023-01-10T15:54:20.328Z,99221.00
2023-01-10T15:56:53.486Z,99226.00
2023-01-10T15:59:40.197Z,99224.00
2023-01-10T16:02:35.015Z,99223.00
2023-01-10T16:05:11.455Z,99226.00
2023-01-10T16:07:45.791Z,99252.00
2023-01-10T16:10:26.872Z,99236.00
2023-01-10T16:13:29.173Z,99233.00
2023-01-10T16:16:05.939Z,99232.00
2023-01-10T16:18:36.877Z,99230.00
2023-01-10T16:21:11.176Z,99225.00
2023-01-10T16:23:46.601Z,99228.00
2023-01-10T16:26:18.272Z,99223.00
2023-01-10T16:28:49.212Z,99218.00
2023-01-10T16:31:20.210Z,99222.00
2023-01-10T16:33:51.899Z,99217.00
2023-01-10T16:36:22.824Z,99217.00
2023-01-10T16:38:53.725Z,99220.00
2023-01-10T16:41:42.833Z,99216.00
2023-01-10T16:44:13.713Z,99200.00
2023-01-10T16:46:44.888Z,99199.00
2023-01-10T16:49:15.890Z,99200.00
2023-01-10T16:51:46.919Z,99203.00
2023-01-10T16:54:21.965Z,99202.00
2023-01-10T16:56:52.818Z,99198.00
2023-01-10T16:59:23.697Z,99200.00
2023-01-10T17:01:58.060Z,99198.00
2023-01-10T17:04:32.470Z,99200.00
2023-01-10T17:07:03.444Z,99201.00
2023-01-10T17:09:35.045Z,99194.00
2023-01-10T17:12:13.047Z,99190.00
2023-01-10T17:14:43.960Z,99187.00
2023-01-10T17:17:14.786Z,99195.00
2023-01-10T17:19:47.293Z,99194.00
2023-01-10T17:22:19.059Z,99185.00
2023-01-10T17:24:49.997Z,99181.00
2023-01-10T17:27:20.875Z,99184.00
2023-01-10T17:29:51.728Z,99185.00
2023-01-10T17:32:22.543Z,99182.00
2023-01-10T17:34:53.482Z,99184.00
2023-01-10T17:37:24.357Z,99200.00
2023-01-10T17:39:55.270Z,99172.00
2023-01-10T17:42:26.340Z,99177.00
2023-01-10T17:44:57.263Z,99179.00
2023-01-10T17:47:28.103Z,99164.00
2023-01-10T17:49:58.959Z,99176.00
2023-01-10T17:52:29.817Z,99167.00
2023-01-10T17:55:01.067Z,99169.00
2023-01-10T17:57:33.451Z,99171.00
2023-01-10T18:00:06.202Z,99156.00
2023-01-10T18:02:37.767Z,99151.00
2023-01-10T18:05:09.228Z,99158.00
2023-01-10T18:07:40.652Z,99153.00
2023-01-10T18:10:11.647Z,99149.00
2023-01-10T18:12:42.488Z,99161.00
2023-01-10T18:15:13.383Z,99157.00
2023-01-10T18:17:45.272Z,99163.00
2023-01-10T18:20:16.731Z,99155.00
2023-01-10T18:23:05.969Z,99153.00
2023-01-10T18:25:36.869Z,99155.00
2023-01-10T18:28:07.757Z,99154.00
2023-01-10T18:30:40.364Z,99145.00
2023-01-10T18:33:11.252Z,99140.00
2023-01-10T18:35:42.270Z,99138.00
2023-01-10T18:38:13.286Z,99151.00
2023-01-10T18:40:45.806Z,99136.00
2023-01-10T18:43:18.563Z,99138.00
2023-01-10T18:45:49.517Z,99127.00
2023-01-10T18:48:21.310Z,99119.00
2023-01-10T18:50:55.076Z,99111.00
2023-01-10T18:53:26.273Z,99118.00
2023-01-10T18:56:04.266Z,99114.00
2023-01-10T18:58:38.816Z,99109.00
2023-01-10T19:01:16.689Z,99117.00
2023-01-10T19:03:47.897Z,99118.00
2023-01-10T19:06:22.656Z,99116.00
2023-01-10T19:08:54.419Z,99104.00
2023-01-10T19:11:25.564Z,99101.00
2023-01-10T19:13:56.415Z,99094.00
2023-01-10T19:16:31.930Z,99089.00
2023-01-10T19:19:09.107Z,99084.00
2023-01-10T19:21:42.207Z,99083.00
2023-01-10T19:24:32.876Z,99087.00
2023-01-10T19:27:05.067Z,99080.00
2023-01-10T19:29:36.868Z,99075.00
2023-01-10T19:32:07.747Z,99079.00
2023-01-10T19:34:38.663Z,99068.00
2023-01-10T19:37:09.736Z,99077.00
2023-01-10T19:39:40.669Z,99078.00
2023-01-10T19:42:11.689Z,99074.00
2023-01-10T19:44:43.440Z,99089.00
2023-01-10T19:47:15.686Z,99084.00
2023-01-10T19:49:46.576Z,99087.00
2023-01-10T19:52:17.407Z,99074.00
2023-01-10T19:54:48.745Z,99061.00
2023-01-10T19:57:19.600Z,99068.00
2023-01-10T19:59:52.497Z,99072.00
2023-01-10T20:02:25.222Z,99061.00
2023-01-10T20:04:56.152Z,99068.00
2023-01-10T20:07:27.185Z,99070.00
2023-01-10T20:09:58.615Z,99065.00
2023-01-10T20:12:29.460Z,99061.00
2023-01-10T20:15:00.310Z,99062.00
2023-01-10T20:17:33.239Z,99064.00
2023-01-10T20:20:04.391Z,99061.00
2023-01-10T20:22:35.277Z,99066.00
2023-01-10T20:25:07.007Z,99068.00
2023-01-10T20:27:37.868Z,99060.00
2023-01-10T20:30:13.899Z,99059.00
2023-01-10T20:32:44.848Z,99056.00
2023-01-10T20:35:15.843Z,99066.00
2023-01-10T20:37:46.717Z,99066.00
2023-01-10T20:40:17.724Z,99053.00
2023-01-10T20:42:50.811Z,99041.00
2023-01-10T20:45:21.750Z,99060.00
2023-01-10T20:47:53.955Z,99056.00
2023-01-10T20:50:25.861Z,99053.00
2023-01-10T20:52:56.749Z,99049.00
2023-01-10T20:55:27.943Z,99042.00
2023-01-10T20:57:58.770Z,99039.00
2023-01-10T21:00:30.535Z,99042.00
2023-01-10T21:03:01.540Z,99036.00
2023-01-10T21:05:32.887Z,99029.00
2023-01-10T21:08:03.832Z,99025.00
2023-01-10T21:10:34.729Z,99051.00
2023-01-10T21:13:05.587Z,99022.00
2023-01-10T21:15:44.202Z,99013.00
2023-01-10T21:18:16.243Z,99011.00
2023-01-10T21:20:47.513Z,99003.00
2023-01-10T21:23:20.344Z,99005.00
2023-01-10T21:25:52.895Z,99009.00
2023-01-10T21:28:23.741Z,99026.00
2023-01-10T21:30:54.615Z,99009.00
2023-01-10T21:33:25.483Z,99014.00
2023-01-10T21:35:58.685Z,99011.00
2023-01-10T21:38:30.192Z,99008.00
2023-01-10T21:41:35.126Z,98999.00
2023-01-10T21:44:07.472Z,98999.00
2023-01-10T21:46:38.660Z,99003.00
2023-01-10T21:49:09.988Z,98990.00
2023-01-10T21:51:41.241Z,99000.00
2023-01-10T21:54:12.170Z,98997.00
2023-01-10T21:56:43.076Z,98991.00
2023-01-10T21:59:14.089Z,98991.00
2023-01-10T22:01:46.472Z,98994.00
2023-01-10T22:04:17.684Z,99001.00
2023-01-10T22:06:48.822Z,98998.00
2023-01-10T22:09:19.751Z,98999.00
2023-01-10T22:11:51.409Z,99002.00
2023-01-10T22:14:22.328Z,99004.00
2023-01-10T22:16:56.151Z,98989.00
2023-01-10T22:19:27.008Z,99000.00
2023-01-10T22:21:57.828Z,98990.00
2023-01-10T22:24:30.756Z,98995.00
2023-01-10T22:27:02.032Z,98990.00
2023-01-10T22:29:32.895Z,98979.00
2023-01-10T22:32:04.454Z,98975.00
2023-01-10T22:34:35.515Z,98981.00
2023-01-10T22:37:06.402Z,98981.00
2023-01-10T22:39:37.337Z,98971.00
2023-01-10T22:42:08.328Z,98966.00
2023-01-10T22:44:39.268Z,98984.00
2023-01-10T22:47:11.843Z,98954.00
2023-01-10T22:49:42.707Z,98952.00
2023-01-10T22:52:13.564Z,98953.00
2023-01-10T22:54:44.475Z,98948.00
2023-01-10T22:57:15.309Z,98954.00
2023-01-10T22:59:46.258Z,98950.00
2023-01-10T23:02:18.234Z,98948.00
2023-01-10T23:04:49.105Z,98951.00
2023-01-10T23:07:19.978Z,98940.00
2023-01-10T23:09:50.833Z,98942.00
2023-01-10T23:12:21.756Z,98945.00
2023-01-10T23:14:52.685Z,98939.00
2023-01-10T23:17:23.681Z,98928.00
2023-01-10T23:19:54.677Z,98916.00
2023-01-10T23:22:25.682Z,98913.00
2023-01-10T23:24:56.580Z,98916.00
2023-01-10T23:27:27.486Z,98910.00
2023-01-10T23:29:58.339Z,98913.00
2023-01-10T23:32:29.164Z,98908.00
2023-01-10T23:35:00.069Z,98902.00
2023-01-10T23:37:30.965Z,98897.00
2023-01-10T23:40:01.902Z,98903.00
2023-01-10T23:42:32.780Z,98898.00
2023-01-10T23:45:04.264Z,98892.00
2023-01-10T23:47:35.179Z,98898.00
2023-01-10T23:50:06.667Z,98902.00
2023-01-10T23:52:37.533Z,98891.00
2023-01-10T23:55:09.006Z,98901.00
2023-01-10T23:57:39.837Z,98888.00
